sensor_id;sensor_type;location;lat;lon;timestamp;P1;durP1;ratioP1;P2;durP2;ratioP2
13051;SDS011;6592;47.484;9.726;2023-04-25T00:01:04;7.13;;;2.70;;
13051;SDS011;6592;47.484;9.726;2023-04-25T00:03:34;5.97;;;2.75;;
13051;SDS011;6592;47.484;9.726;2023-04-25T00:06:03;6.22;;;2.83;;
13051;SDS011;6592;47.484;9.726;2023-04-25T00:08:31;4.65;;;2.65;;
13051;SDS011;6592;47.484;9.726;2023-04-25T00:11:00;4.18;;;2.03;;
13051;SDS011;6592;47.484;9.726;2023-04-25T00:13:28;4.95;;;2.08;;
13051;SDS011;6592;47.484;9.726;2023-04-25T00:15:56;3.45;;;1.73;;
13051;SDS011;6592;47.484;9.726;2023-04-25T00:18:24;4.93;;;1.85;;
13051;SDS011;6592;47.484;9.726;2023-04-25T00:20:56;3.08;;;1.55;;
13051;SDS011;6592;47.484;9.726;2023-04-25T00:23:24;3.20;;;1.55;;
13051;SDS011;6592;47.484;9.726;2023-04-25T00:25:52;4.38;;;1.80;;
13051;SDS011;6592;47.484;9.726;2023-04-25T00:28:21;3.25;;;1.75;;
13051;SDS011;6592;47.484;9.726;2023-04-25T00:30:49;3.78;;;1.77;;
13051;SDS011;6592;47.484;9.726;2023-04-25T00:33:17;2.83;;;1.60;;
13051;SDS011;6592;47.484;9.726;2023-04-25T00:35:46;4.75;;;2.28;;
13051;SDS011;6592;47.484;9.726;2023-04-25T00:38:15;4.43;;;2.22;;
13051;SDS011;6592;47.484;9.726;2023-04-25T00:40:43;4.63;;;2.00;;
13051;SDS011;6592;47.484;9.726;2023-04-25T00:43:12;5.57;;;2.70;;
13051;SDS011;6592;47.484;9.726;2023-04-25T00:45:40;5.55;;;2.60;;
13051;SDS011;6592;47.484;9.726;2023-04-25T00:48:10;4.68;;;2.60;;
13051;SDS011;6592;47.484;9.726;2023-04-25T00:50:41;4.40;;;2.40;;
13051;SDS011;6592;47.484;9.726;2023-04-25T00:53:17;5.90;;;3.10;;
13051;SDS011;6592;47.484;9.726;2023-04-25T00:55:45;7.63;;;3.28;;
13051;SDS011;6592;47.484;9.726;2023-04-25T00:58:13;7.97;;;2.72;;
13051;SDS011;6592;47.484;9.726;2023-04-25T01:00:42;5.60;;;2.92;;
13051;SDS011;6592;47.484;9.726;2023-04-25T01:03:11;5.57;;;2.35;;
13051;SDS011;6592;47.484;9.726;2023-04-25T01:05:40;5.70;;;2.88;;
13051;SDS011;6592;47.484;9.726;2023-04-25T01:08:09;6.53;;;3.10;;
13051;SDS011;6592;47.484;9.726;2023-04-25T01:10:38;7.22;;;3.00;;
13051;SDS011;6592;47.484;9.726;2023-04-25T01:13:07;7.55;;;2.97;;
13051;SDS011;6592;47.484;9.726;2023-04-25T01:15:35;5.25;;;3.08;;
13051;SDS011;6592;47.484;9.726;2023-04-25T01:18:04;6.60;;;3.33;;
13051;SDS011;6592;47.484;9.726;2023-04-25T01:20:33;8.23;;;3.45;;
13051;SDS011;6592;47.484;9.726;2023-04-25T01:23:03;6.57;;;2.83;;
13051;SDS011;6592;47.484;9.726;2023-04-25T01:25:31;6.38;;;3.00;;
13051;SDS011;6592;47.484;9.726;2023-04-25T01:27:59;5.50;;;2.88;;
13051;SDS011;6592;47.484;9.726;2023-04-25T01:30:28;5.75;;;2.78;;
13051;SDS011;6592;47.484;9.726;2023-04-25T01:32:57;5.05;;;2.83;;
13051;SDS011;6592;47.484;9.726;2023-04-25T01:35:26;5.30;;;2.55;;
13051;SDS011;6592;47.484;9.726;2023-04-25T01:37:54;5.93;;;2.80;;
13051;SDS011;6592;47.484;9.726;2023-04-25T01:40:24;6.38;;;3.00;;
13051;SDS011;6592;47.484;9.726;2023-04-25T01:42:54;4.38;;;2.70;;
13051;SDS011;6592;47.484;9.726;2023-04-25T01:45:22;5.05;;;2.88;;
13051;SDS011;6592;47.484;9.726;2023-04-25T01:47:50;6.53;;;3.10;;
13051;SDS011;6592;47.484;9.726;2023-04-25T01:50:19;5.88;;;3.03;;
13051;SDS011;6592;47.484;9.726;2023-04-25T01:52:47;5.32;;;2.65;;
13051;SDS011;6592;47.484;9.726;2023-04-25T01:55:16;6.38;;;3.60;;
13051;SDS011;6592;47.484;9.726;2023-04-25T01:57:46;6.07;;;3.38;;
13051;SDS011;6592;47.484;9.726;2023-04-25T02:00:14;6.97;;;3.50;;
13051;SDS011;6592;47.484;9.726;2023-04-25T02:02:43;8.80;;;3.72;;
13051;SDS011;6592;47.484;9.726;2023-04-25T02:05:11;6.43;;;3.55;;
13051;SDS011;6592;47.484;9.726;2023-04-25T02:07:39;7.35;;;3.42;;
13051;SDS011;6592;47.484;9.726;2023-04-25T02:10:08;7.63;;;2.97;;
13051;SDS011;6592;47.484;9.726;2023-04-25T02:12:37;7.28;;;3.58;;
13051;SDS011;6592;47.484;9.726;2023-04-25T02:15:07;5.35;;;2.90;;
13051;SDS011;6592;47.484;9.726;2023-04-25T02:17:36;6.43;;;3.40;;
13051;SDS011;6592;47.484;9.726;2023-04-25T02:20:05;6.43;;;2.97;;
13051;SDS011;6592;47.484;9.726;2023-04-25T02:22:34;6.72;;;3.22;;
13051;SDS011;6592;47.484;9.726;2023-04-25T02:25:03;5.75;;;2.85;;
13051;SDS011;6592;47.484;9.726;2023-04-25T02:27:32;5.57;;;2.65;;
13051;SDS011;6592;47.484;9.726;2023-04-25T02:30:00;4.82;;;2.60;;
13051;SDS011;6592;47.484;9.726;2023-04-25T02:32:30;5.57;;;2.30;;
13051;SDS011;6592;47.484;9.726;2023-04-25T02:35:00;5.22;;;2.47;;
13051;SDS011;6592;47.484;9.726;2023-04-25T02:37:30;5.20;;;2.60;;
13051;SDS011;6592;47.484;9.726;2023-04-25T02:39:58;5.03;;;2.63;;
13051;SDS011;6592;47.484;9.726;2023-04-25T02:42:27;8.68;;;3.13;;
13051;SDS011;6592;47.484;9.726;2023-04-25T02:44:55;4.80;;;2.50;;
13051;SDS011;6592;47.484;9.726;2023-04-25T02:47:23;5.35;;;2.78;;
13051;SDS011;6592;47.484;9.726;2023-04-25T02:49:53;5.22;;;2.97;;
13051;SDS011;6592;47.484;9.726;2023-04-25T02:52:21;4.45;;;2.58;;
13051;SDS011;6592;47.484;9.726;2023-04-25T02:54:50;6.32;;;2.65;;
13051;SDS011;6592;47.484;9.726;2023-04-25T02:57:18;6.47;;;2.65;;
13051;SDS011;6592;47.484;9.726;2023-04-25T02:59:46;4.53;;;2.63;;
13051;SDS011;6592;47.484;9.726;2023-04-25T03:02:14;5.47;;;3.00;;
13051;SDS011;6592;47.484;9.726;2023-04-25T03:04:43;5.85;;;3.00;;
13051;SDS011;6592;47.484;9.726;2023-04-25T03:07:12;5.95;;;3.17;;
13051;SDS011;6592;47.484;9.726;2023-04-25T03:09:41;5.55;;;2.88;;
13051;SDS011;6592;47.484;9.726;2023-04-25T03:12:09;5.47;;;2.80;;
13051;SDS011;6592;47.484;9.726;2023-04-25T03:14:37;6.28;;;3.08;;
13051;SDS011;6592;47.484;9.726;2023-04-25T03:17:05;5.20;;;2.83;;
13051;SDS011;6592;47.484;9.726;2023-04-25T03:19:33;6.40;;;3.03;;
13051;SDS011;6592;47.484;9.726;2023-04-25T03:22:02;7.20;;;3.40;;
13051;SDS011;6592;47.484;9.726;2023-04-25T03:24:31;6.90;;;3.50;;
13051;SDS011;6592;47.484;9.726;2023-04-25T03:26:59;6.75;;;3.50;;
13051;SDS011;6592;47.484;9.726;2023-04-25T03:29:28;5.57;;;3.25;;
13051;SDS011;6592;47.484;9.726;2023-04-25T03:31:56;5.97;;;2.90;;
13051;SDS011;6592;47.484;9.726;2023-04-25T03:34:24;6.28;;;3.30;;
13051;SDS011;6592;47.484;9.726;2023-04-25T03:36:54;5.45;;;3.25;;
13051;SDS011;6592;47.484;9.726;2023-04-25T03:39:22;6.72;;;3.20;;
13051;SDS011;6592;47.484;9.726;2023-04-25T03:41:52;6.07;;;3.03;;
13051;SDS011;6592;47.484;9.726;2023-04-25T03:44:20;6.45;;;3.10;;
13051;SDS011;6592;47.484;9.726;2023-04-25T03:46:48;6.28;;;3.58;;
13051;SDS011;6592;47.484;9.726;2023-04-25T03:49:16;6.50;;;3.45;;
13051;SDS011;6592;47.484;9.726;2023-04-25T03:51:45;6.53;;;3.60;;
13051;SDS011;6592;47.484;9.726;2023-04-25T03:54:13;7.97;;;3.22;;
13051;SDS011;6592;47.484;9.726;2023-04-25T03:56:41;6.40;;;3.50;;
13051;SDS011;6592;47.484;9.726;2023-04-25T03:59:11;6.47;;;3.25;;
13051;SDS011;6592;47.484;9.726;2023-04-25T04:01:39;6.47;;;3.20;;
13051;SDS011;6592;47.484;9.726;2023-04-25T04:04:08;7.22;;;3.67;;
13051;SDS011;6592;47.484;9.726;2023-04-25T04:06:36;8.60;;;3.67;;
13051;SDS011;6592;47.484;9.726;2023-04-25T04:09:05;6.72;;;3.78;;
13051;SDS011;6592;47.484;9.726;2023-04-25T04:11:36;6.70;;;3.50;;
13051;SDS011;6592;47.484;9.726;2023-04-25T04:14:04;6.57;;;2.85;;
13051;SDS011;6592;47.484;9.726;2023-04-25T04:16:34;5.85;;;3.05;;
13051;SDS011;6592;47.484;9.726;2023-04-25T04:19:03;5.93;;;3.50;;
13051;SDS011;6592;47.484;9.726;2023-04-25T04:21:31;4.82;;;2.80;;
13051;SDS011;6592;47.484;9.726;2023-04-25T04:23:59;7.30;;;3.30;;
13051;SDS011;6592;47.484;9.726;2023-04-25T04:26:28;5.43;;;3.03;;
13051;SDS011;6592;47.484;9.726;2023-04-25T04:28:58;6.00;;;3.20;;
13051;SDS011;6592;47.484;9.726;2023-04-25T04:31:26;5.72;;;3.15;;
13051;SDS011;6592;47.484;9.726;2023-04-25T04:33:56;5.72;;;3.33;;
13051;SDS011;6592;47.484;9.726;2023-04-25T04:36:24;5.88;;;3.00;;
13051;SDS011;6592;47.484;9.726;2023-04-25T04:38:53;5.90;;;3.17;;
13051;SDS011;6592;47.484;9.726;2023-04-25T04:41:22;7.85;;;3.10;;
13051;SDS011;6592;47.484;9.726;2023-04-25T04:43:50;9.05;;;3.53;;
13051;SDS011;6592;47.484;9.726;2023-04-25T04:46:19;6.10;;;3.05;;
13051;SDS011;6592;47.484;9.726;2023-04-25T04:48:48;8.65;;;3.20;;
13051;SDS011;6592;47.484;9.726;2023-04-25T04:51:17;7.50;;;3.58;;
13051;SDS011;6592;47.484;9.726;2023-04-25T04:53:47;5.72;;;3.03;;
13051;SDS011;6592;47.484;9.726;2023-04-25T04:56:15;6.07;;;3.17;;
13051;SDS011;6592;47.484;9.726;2023-04-25T04:58:44;6.65;;;2.90;;
13051;SDS011;6592;47.484;9.726;2023-04-25T05:01:15;8.63;;;2.97;;
13051;SDS011;6592;47.484;9.726;2023-04-25T05:03:43;4.00;;;2.45;;
13051;SDS011;6592;47.484;9.726;2023-04-25T05:06:12;5.75;;;2.55;;
13051;SDS011;6592;47.484;9.726;2023-04-25T05:08:41;7.57;;;2.55;;
13051;SDS011;6592;47.484;9.726;2023-04-25T05:11:10;5.53;;;2.47;;
13051;SDS011;6592;47.484;9.726;2023-04-25T05:13:38;5.60;;;2.67;;
13051;SDS011;6592;47.484;9.726;2023-04-25T05:16:06;4.45;;;2.30;;
13051;SDS011;6592;47.484;9.726;2023-04-25T05:18:35;4.93;;;2.30;;
13051;SDS011;6592;47.484;9.726;2023-04-25T05:21:03;5.38;;;2.78;;
13051;SDS011;6592;47.484;9.726;2023-04-25T05:23:32;5.70;;;3.08;;
13051;SDS011;6592;47.484;9.726;2023-04-25T05:26:02;10.82;;;5.78;;
13051;SDS011;6592;47.484;9.726;2023-04-25T05:28:30;9.48;;;4.82;;
13051;SDS011;6592;47.484;9.726;2023-04-25T05:30:59;10.07;;;4.70;;
13051;SDS011;6592;47.484;9.726;2023-04-25T05:33:27;13.23;;;7.07;;
13051;SDS011;6592;47.484;9.726;2023-04-25T05:35:55;8.23;;;4.25;;
13051;SDS011;6592;47.484;9.726;2023-04-25T05:38:23;7.93;;;3.92;;
13051;SDS011;6592;47.484;9.726;2023-04-25T05:40:52;7.35;;;3.88;;
13051;SDS011;6592;47.484;9.726;2023-04-25T05:43:21;9.98;;;4.13;;
13051;SDS011;6592;47.484;9.726;2023-04-25T05:45:50;9.40;;;3.80;;
13051;SDS011;6592;47.484;9.726;2023-04-25T05:48:18;8.32;;;3.67;;
13051;SDS011;6592;47.484;9.726;2023-04-25T05:50:46;5.85;;;3.08;;
13051;SDS011;6592;47.484;9.726;2023-04-25T05:53:14;6.20;;;2.97;;
13051;SDS011;6592;47.484;9.726;2023-04-25T05:55:43;5.85;;;3.28;;
13051;SDS011;6592;47.484;9.726;2023-04-25T05:58:11;5.55;;;2.90;;
13051;SDS011;6592;47.484;9.726;2023-04-25T06:00:41;6.00;;;3.10;;
13051;SDS011;6592;47.484;9.726;2023-04-25T06:03:09;5.88;;;2.83;;
13051;SDS011;6592;47.484;9.726;2023-04-25T06:05:38;4.57;;;2.53;;
13051;SDS011;6592;47.484;9.726;2023-04-25T06:08:06;5.68;;;2.70;;
13051;SDS011;6592;47.484;9.726;2023-04-25T06:10:35;5.07;;;2.28;;
13051;SDS011;6592;47.484;9.726;2023-04-25T06:13:03;4.75;;;2.60;;
13051;SDS011;6592;47.484;9.726;2023-04-25T06:15:32;4.72;;;2.28;;
13051;SDS011;6592;47.484;9.726;2023-04-25T06:18:02;4.88;;;2.20;;
13051;SDS011;6592;47.484;9.726;2023-04-25T06:20:31;4.93;;;2.50;;
13051;SDS011;6592;47.484;9.726;2023-04-25T06:22:59;4.63;;;2.15;;
13051;SDS011;6592;47.484;9.726;2023-04-25T06:25:27;4.72;;;2.10;;
13051;SDS011;6592;47.484;9.726;2023-04-25T06:27:55;5.18;;;2.03;;
13051;SDS011;6592;47.484;9.726;2023-04-25T06:30:23;9.43;;;4.68;;
13051;SDS011;6592;47.484;9.726;2023-04-25T06:32:52;4.22;;;2.00;;
13051;SDS011;6592;47.484;9.726;2023-04-25T06:35:21;4.68;;;2.10;;
13051;SDS011;6592;47.484;9.726;2023-04-25T06:37:50;7.28;;;4.22;;
13051;SDS011;6592;47.484;9.726;2023-04-25T06:40:18;3.65;;;1.77;;
13051;SDS011;6592;47.484;9.726;2023-04-25T06:42:46;4.22;;;1.67;;
13051;SDS011;6592;47.484;9.726;2023-04-25T06:45:14;4.00;;;1.80;;
13051;SDS011;6592;47.484;9.726;2023-04-25T06:47:42;3.28;;;1.92;;
13051;SDS011;6592;47.484;9.726;2023-04-25T06:50:11;4.03;;;1.75;;
13051;SDS011;6592;47.484;9.726;2023-04-25T06:52:40;4.47;;;1.95;;
13051;SDS011;6592;47.484;9.726;2023-04-25T06:55:09;3.88;;;2.00;;
13051;SDS011;6592;47.484;9.726;2023-04-25T06:57:37;4.32;;;1.85;;
13051;SDS011;6592;47.484;9.726;2023-04-25T07:00:05;6.28;;;1.70;;
13051;SDS011;6592;47.484;9.726;2023-04-25T07:02:35;3.80;;;1.40;;
13051;SDS011;6592;47.484;9.726;2023-04-25T07:05:04;3.35;;;1.23;;
13051;SDS011;6592;47.484;9.726;2023-04-25T07:07:32;3.95;;;1.65;;
13051;SDS011;6592;47.484;9.726;2023-04-25T07:10:02;4.50;;;1.65;;
13051;SDS011;6592;47.484;9.726;2023-04-25T07:12:31;2.50;;;1.20;;
13051;SDS011;6592;47.484;9.726;2023-04-25T07:14:59;3.45;;;1.00;;
13051;SDS011;6592;47.484;9.726;2023-04-25T07:17:32;2.40;;;1.27;;
13051;SDS011;6592;47.484;9.726;2023-04-25T07:20:01;2.55;;;1.10;;
13051;SDS011;6592;47.484;9.726;2023-04-25T07:22:30;2.55;;;1.10;;
13051;SDS011;6592;47.484;9.726;2023-04-25T07:24:58;2.50;;;1.10;;
13051;SDS011;6592;47.484;9.726;2023-04-25T07:27:27;3.25;;;1.30;;
13051;SDS011;6592;47.484;9.726;2023-04-25T07:29:56;2.25;;;1.10;;
13051;SDS011;6592;47.484;9.726;2023-04-25T07:32:24;3.33;;;1.02;;
13051;SDS011;6592;47.484;9.726;2023-04-25T07:34:53;1.77;;;0.80;;
13051;SDS011;6592;47.484;9.726;2023-04-25T07:37:21;3.03;;;1.30;;
13051;SDS011;6592;47.484;9.726;2023-04-25T07:39:50;3.30;;;1.30;;
13051;SDS011;6592;47.484;9.726;2023-04-25T07:42:18;5.60;;;1.40;;
13051;SDS011;6592;47.484;9.726;2023-04-25T07:44:48;3.13;;;1.10;;
13051;SDS011;6592;47.484;9.726;2023-04-25T07:47:17;2.17;;;1.10;;
13051;SDS011;6592;47.484;9.726;2023-04-25T07:49:46;3.47;;;1.40;;
13051;SDS011;6592;47.484;9.726;2023-04-25T07:52:14;4.53;;;1.23;;
13051;SDS011;6592;47.484;9.726;2023-04-25T07:54:43;3.15;;;1.00;;
13051;SDS011;6592;47.484;9.726;2023-04-25T07:57:11;3.05;;;1.10;;
13051;SDS011;6592;47.484;9.726;2023-04-25T07:59:40;2.30;;;1.05;;
13051;SDS011;6592;47.484;9.726;2023-04-25T08:02:09;2.92;;;0.85;;
13051;SDS011;6592;47.484;9.726;2023-04-25T08:04:38;3.05;;;1.15;;
13051;SDS011;6592;47.484;9.726;2023-04-25T08:07:07;3.22;;;0.80;;
13051;SDS011;6592;47.484;9.726;2023-04-25T08:09:35;2.83;;;1.48;;
13051;SDS011;6592;47.484;9.726;2023-04-25T08:12:04;2.70;;;1.10;;
13051;SDS011;6592;47.484;9.726;2023-04-25T08:14:32;1.77;;;0.90;;
13051;SDS011;6592;47.484;9.726;2023-04-25T08:17:03;2.75;;;1.15;;
13051;SDS011;6592;47.484;9.726;2023-04-25T08:19:33;2.47;;;1.08;;
13051;SDS011;6592;47.484;9.726;2023-04-25T08:22:01;3.65;;;1.23;;
13051;SDS011;6592;47.484;9.726;2023-04-25T08:24:29;2.92;;;1.33;;
13051;SDS011;6592;47.484;9.726;2023-04-25T08:26:58;2.60;;;1.27;;
13051;SDS011;6592;47.484;9.726;2023-04-25T08:29:26;4.78;;;1.30;;
13051;SDS011;6592;47.484;9.726;2023-04-25T08:31:55;5.05;;;1.48;;
13051;SDS011;6592;47.484;9.726;2023-04-25T08:34:23;3.20;;;1.33;;
13051;SDS011;6592;47.484;9.726;2023-04-25T08:36:53;5.43;;;2.25;;
13051;SDS011;6592;47.484;9.726;2023-04-25T08:39:21;5.50;;;1.52;;
13051;SDS011;6592;47.484;9.726;2023-04-25T08:41:49;4.65;;;1.70;;
13051;SDS011;6592;47.484;9.726;2023-04-25T08:44:19;4.40;;;1.67;;
13051;SDS011;6592;47.484;9.726;2023-04-25T08:46:48;5.18;;;1.77;;
13051;SDS011;6592;47.484;9.726;2023-04-25T08:49:17;3.85;;;1.60;;
13051;SDS011;6592;47.484;9.726;2023-04-25T08:51:46;4.88;;;1.55;;
13051;SDS011;6592;47.484;9.726;2023-04-25T08:54:17;3.83;;;1.75;;
13051;SDS011;6592;47.484;9.726;2023-04-25T08:57:02;3.83;;;1.85;;
13051;SDS011;6592;47.484;9.726;2023-04-25T08:59:31;6.10;;;2.38;;
13051;SDS011;6592;47.484;9.726;2023-04-25T09:02:02;4.40;;;1.90;;
13051;SDS011;6592;47.484;9.726;2023-04-25T09:04:31;4.00;;;1.45;;
13051;SDS011;6592;47.484;9.726;2023-04-25T09:06:59;5.35;;;1.35;;
13051;SDS011;6592;47.484;9.726;2023-04-25T09:09:29;3.63;;;1.50;;
13051;SDS011;6592;47.484;9.726;2023-04-25T09:11:57;3.75;;;1.58;;
13051;SDS011;6592;47.484;9.726;2023-04-25T09:14:27;5.45;;;1.65;;
13051;SDS011;6592;47.484;9.726;2023-04-25T09:16:57;5.43;;;1.80;;
13051;SDS011;6592;47.484;9.726;2023-04-25T09:19:27;5.53;;;1.80;;
13051;SDS011;6592;47.484;9.726;2023-04-25T09:21:59;4.38;;;1.42;;
13051;SDS011;6592;47.484;9.726;2023-04-25T09:24:31;4.22;;;2.20;;
13051;SDS011;6592;47.484;9.726;2023-04-25T09:27:02;6.15;;;2.20;;
13051;SDS011;6592;47.484;9.726;2023-04-25T09:29:32;4.45;;;2.15;;
13051;SDS011;6592;47.484;9.726;2023-04-25T09:34:54;4.95;;;2.10;;
13051;SDS011;6592;47.484;9.726;2023-04-25T09:37:23;3.83;;;1.60;;
13051;SDS011;6592;47.484;9.726;2023-04-25T09:39:54;5.43;;;1.60;;
13051;SDS011;6592;47.484;9.726;2023-04-25T09:42:24;4.30;;;1.80;;
13051;SDS011;6592;47.484;9.726;2023-04-25T09:44:53;2.70;;;1.20;;
13051;SDS011;6592;47.484;9.726;2023-04-25T09:47:23;4.50;;;1.52;;
13051;SDS011;6592;47.484;9.726;2023-04-25T09:49:53;4.90;;;1.38;;
13051;SDS011;6592;47.484;9.726;2023-04-25T09:52:22;1.40;;;0.77;;
13051;SDS011;6592;47.484;9.726;2023-04-25T09:54:52;1.77;;;0.90;;
13051;SDS011;6592;47.484;9.726;2023-04-25T09:57:22;2.63;;;0.80;;
13051;SDS011;6592;47.484;9.726;2023-04-25T09:59:53;2.78;;;1.30;;
13051;SDS011;6592;47.484;9.726;2023-04-25T10:02:23;3.83;;;1.48;;
13051;SDS011;6592;47.484;9.726;2023-04-25T10:04:52;2.47;;;1.00;;
13051;SDS011;6592;47.484;9.726;2023-04-25T10:07:23;4.70;;;1.40;;
13051;SDS011;6592;47.484;9.726;2023-04-25T10:09:58;2.20;;;1.00;;
13051;SDS011;6592;47.484;9.726;2023-04-25T10:12:28;3.53;;;1.33;;
13051;SDS011;6592;47.484;9.726;2023-04-25T10:14:57;2.30;;;1.30;;
13051;SDS011;6592;47.484;9.726;2023-04-25T10:17:26;3.47;;;1.67;;
13051;SDS011;6592;47.484;9.726;2023-04-25T10:19:55;2.60;;;1.20;;
13051;SDS011;6592;47.484;9.726;2023-04-25T10:22:26;4.55;;;1.50;;
13051;SDS011;6592;47.484;9.726;2023-04-25T10:24:59;5.25;;;1.30;;
13051;SDS011;6592;47.484;9.726;2023-04-25T10:27:30;4.00;;;1.50;;
13051;SDS011;6592;47.484;9.726;2023-04-25T10:30:02;4.90;;;1.42;;
13051;SDS011;6592;47.484;9.726;2023-04-25T10:32:32;3.00;;;1.48;;
13051;SDS011;6592;47.484;9.726;2023-04-25T10:35:10;2.85;;;1.42;;
13051;SDS011;6592;47.484;9.726;2023-04-25T10:40:32;2.58;;;1.30;;
13051;SDS011;6592;47.484;9.726;2023-04-25T10:46:12;3.72;;;1.40;;
13051;SDS011;6592;47.484;9.726;2023-04-25T10:48:45;2.80;;;1.05;;
13051;SDS011;6592;47.484;9.726;2023-04-25T10:51:16;2.00;;;0.90;;
13051;SDS011;6592;47.484;9.726;2023-04-25T10:53:59;1.30;;;0.50;;
13051;SDS011;6592;47.484;9.726;2023-04-25T10:56:29;2.13;;;0.50;;
13051;SDS011;6592;47.484;9.726;2023-04-25T10:59:05;2.00;;;0.60;;
13051;SDS011;6592;47.484;9.726;2023-04-25T11:01:36;1.63;;;0.60;;
13051;SDS011;6592;47.484;9.726;2023-04-25T11:04:06;2.10;;;0.60;;
13051;SDS011;6592;47.484;9.726;2023-04-25T11:06:50;1.85;;;0.68;;
13051;SDS011;6592;47.484;9.726;2023-04-25T11:09:33;1.63;;;0.73;;
13051;SDS011;6592;47.484;9.726;2023-04-25T11:12:03;1.40;;;0.73;;
13051;SDS011;6592;47.484;9.726;2023-04-25T11:14:34;2.47;;;0.82;;
13051;SDS011;6592;47.484;9.726;2023-04-25T11:17:03;1.17;;;0.70;;
13051;SDS011;6592;47.484;9.726;2023-04-25T11:19:32;2.10;;;0.95;;
13051;SDS011;6592;47.484;9.726;2023-04-25T11:22:00;1.80;;;0.82;;
13051;SDS011;6592;47.484;9.726;2023-04-25T11:24:29;2.00;;;0.77;;
13051;SDS011;6592;47.484;9.726;2023-04-25T11:26:59;1.95;;;0.80;;
13051;SDS011;6592;47.484;9.726;2023-04-25T11:29:30;2.47;;;0.98;;
13051;SDS011;6592;47.484;9.726;2023-04-25T11:34:29;1.60;;;0.80;;
13051;SDS011;6592;47.484;9.726;2023-04-25T11:36:59;1.42;;;0.63;;
13051;SDS011;6592;47.484;9.726;2023-04-25T11:39:28;1.73;;;0.93;;
13051;SDS011;6592;47.484;9.726;2023-04-25T11:41:57;2.90;;;1.10;;
13051;SDS011;6592;47.484;9.726;2023-04-25T11:44:30;2.00;;;1.00;;
13051;SDS011;6592;47.484;9.726;2023-04-25T11:46:58;2.15;;;1.10;;
13051;SDS011;6592;47.484;9.726;2023-04-25T11:49:30;2.42;;;1.10;;
13051;SDS011;6592;47.484;9.726;2023-04-25T11:51:58;1.88;;;1.00;;
13051;SDS011;6592;47.484;9.726;2023-04-25T11:54:26;2.38;;;1.02;;
13051;SDS011;6592;47.484;9.726;2023-04-25T11:56:55;1.90;;;1.00;;
13051;SDS011;6592;47.484;9.726;2023-04-25T11:59:24;1.60;;;0.90;;
13051;SDS011;6592;47.484;9.726;2023-04-25T12:01:54;2.97;;;0.90;;
13051;SDS011;6592;47.484;9.726;2023-04-25T12:04:24;1.73;;;0.90;;
13051;SDS011;6592;47.484;9.726;2023-04-25T12:06:53;1.52;;;0.73;;
13051;SDS011;6592;47.484;9.726;2023-04-25T12:09:27;2.35;;;1.27;;
13051;SDS011;6592;47.484;9.726;2023-04-25T12:11:57;2.72;;;1.45;;
13051;SDS011;6592;47.484;9.726;2023-04-25T12:14:30;2.17;;;1.00;;
13051;SDS011;6592;47.484;9.726;2023-04-25T12:17:01;1.15;;;0.60;;
13051;SDS011;6592;47.484;9.726;2023-04-25T12:19:32;0.55;;;0.30;;
13051;SDS011;6592;47.484;9.726;2023-04-25T12:22:01;0.68;;;0.20;;
13051;SDS011;6592;47.484;9.726;2023-04-25T12:24:32;1.67;;;0.35;;
13051;SDS011;6592;47.484;9.726;2023-04-25T12:27:05;1.20;;;0.40;;
13051;SDS011;6592;47.484;9.726;2023-04-25T12:29:34;2.40;;;0.50;;
13051;SDS011;6592;47.484;9.726;2023-04-25T12:32:16;1.40;;;0.40;;
13051;SDS011;6592;47.484;9.726;2023-04-25T12:34:44;2.60;;;0.50;;
13051;SDS011;6592;47.484;9.726;2023-04-25T12:37:13;1.08;;;0.43;;
13051;SDS011;6592;47.484;9.726;2023-04-25T12:39:42;1.00;;;0.50;;
13051;SDS011;6592;47.484;9.726;2023-04-25T12:42:10;2.00;;;0.40;;
13051;SDS011;6592;47.484;9.726;2023-04-25T12:44:39;1.83;;;0.60;;
13051;SDS011;6592;47.484;9.726;2023-04-25T12:47:07;1.50;;;0.60;;
13051;SDS011;6592;47.484;9.726;2023-04-25T12:49:37;1.75;;;0.63;;
13051;SDS011;6592;47.484;9.726;2023-04-25T12:52:06;2.78;;;0.47;;
13051;SDS011;6592;47.484;9.726;2023-04-25T12:54:34;3.20;;;0.60;;
13051;SDS011;6592;47.484;9.726;2023-04-25T12:57:02;1.17;;;0.47;;
13051;SDS011;6592;47.484;9.726;2023-04-25T12:59:31;1.50;;;0.60;;
13051;SDS011;6592;47.484;9.726;2023-04-25T13:01:59;2.08;;;0.75;;
13051;SDS011;6592;47.484;9.726;2023-04-25T13:04:27;1.13;;;0.40;;
13051;SDS011;6592;47.484;9.726;2023-04-25T13:06:57;0.88;;;0.50;;
13051;SDS011;6592;47.484;9.726;2023-04-25T13:09:26;0.88;;;0.43;;
13051;SDS011;6592;47.484;9.726;2023-04-25T13:11:54;1.30;;;0.40;;
13051;SDS011;6592;47.484;9.726;2023-04-25T13:14:24;2.08;;;0.40;;
13051;SDS011;6592;47.484;9.726;2023-04-25T13:16:53;0.63;;;0.40;;
13051;SDS011;6592;47.484;9.726;2023-04-25T13:19:21;1.50;;;0.68;;
13051;SDS011;6592;47.484;9.726;2023-04-25T13:21:49;1.70;;;0.60;;
13051;SDS011;6592;47.484;9.726;2023-04-25T13:24:19;1.73;;;0.70;;
13051;SDS011;6592;47.484;9.726;2023-04-25T13:26:47;1.05;;;0.50;;
13051;SDS011;6592;47.484;9.726;2023-04-25T13:29:15;2.47;;;0.70;;
13051;SDS011;6592;47.484;9.726;2023-04-25T13:31:44;1.73;;;0.50;;
13051;SDS011;6592;47.484;9.726;2023-04-25T13:34:12;1.60;;;0.68;;
13051;SDS011;6592;47.484;9.726;2023-04-25T13:36:41;0.75;;;0.30;;
13051;SDS011;6592;47.484;9.726;2023-04-25T13:39:09;1.05;;;0.35;;
13051;SDS011;6592;47.484;9.726;2023-04-25T13:41:39;0.77;;;0.30;;
13051;SDS011;6592;47.484;9.726;2023-04-25T13:44:08;0.25;;;0.17;;
13051;SDS011;6592;47.484;9.726;2023-04-25T13:46:36;0.90;;;0.30;;
13051;SDS011;6592;47.484;9.726;2023-04-25T13:49:12;0.80;;;0.30;;
13051;SDS011;6592;47.484;9.726;2023-04-25T13:51:41;1.88;;;0.55;;
13051;SDS011;6592;47.484;9.726;2023-04-25T13:54:10;1.80;;;0.95;;
13051;SDS011;6592;47.484;9.726;2023-04-25T13:56:40;3.60;;;0.90;;
13051;SDS011;6592;47.484;9.726;2023-04-25T13:59:08;2.25;;;1.08;;
13051;SDS011;6592;47.484;9.726;2023-04-25T14:01:37;2.25;;;0.70;;
13051;SDS011;6592;47.484;9.726;2023-04-25T14:04:05;2.97;;;0.73;;
13051;SDS011;6592;47.484;9.726;2023-04-25T14:06:34;2.15;;;0.80;;
13051;SDS011;6592;47.484;9.726;2023-04-25T14:09:03;2.42;;;0.70;;
13051;SDS011;6592;47.484;9.726;2023-04-25T14:11:33;2.17;;;0.75;;
13051;SDS011;6592;47.484;9.726;2023-04-25T14:14:02;1.52;;;0.70;;
13051;SDS011;6592;47.484;9.726;2023-04-25T14:16:31;2.35;;;0.52;;
13051;SDS011;6592;47.484;9.726;2023-04-25T14:19:01;0.98;;;0.50;;
13051;SDS011;6592;47.484;9.726;2023-04-25T14:21:30;1.10;;;0.57;;
13051;SDS011;6592;47.484;9.726;2023-04-25T14:23:59;1.15;;;0.50;;
13051;SDS011;6592;47.484;9.726;2023-04-25T14:26:28;1.65;;;0.50;;
13051;SDS011;6592;47.484;9.726;2023-04-25T14:28:56;1.80;;;0.50;;
13051;SDS011;6592;47.484;9.726;2023-04-25T14:31:26;3.13;;;0.60;;
13051;SDS011;6592;47.484;9.726;2023-04-25T14:33:54;0.77;;;0.40;;
13051;SDS011;6592;47.484;9.726;2023-04-25T14:36:25;1.40;;;0.38;;
13051;SDS011;6592;47.484;9.726;2023-04-25T14:38:53;1.00;;;0.40;;
13051;SDS011;6592;47.484;9.726;2023-04-25T14:41:22;1.50;;;0.50;;
13051;SDS011;6592;47.484;9.726;2023-04-25T14:43:51;1.70;;;0.60;;
13051;SDS011;6592;47.484;9.726;2023-04-25T14:46:20;2.25;;;0.60;;
13051;SDS011;6592;47.484;9.726;2023-04-25T14:48:51;1.15;;;0.55;;
13051;SDS011;6592;47.484;9.726;2023-04-25T14:51:19;1.92;;;0.52;;
13051;SDS011;6592;47.484;9.726;2023-04-25T14:53:47;1.35;;;0.50;;
13051;SDS011;6592;47.484;9.726;2023-04-25T14:56:17;3.22;;;0.70;;
13051;SDS011;6592;47.484;9.726;2023-04-25T14:58:45;2.15;;;0.88;;
13051;SDS011;6592;47.484;9.726;2023-04-25T15:01:13;2.75;;;0.80;;
13051;SDS011;6592;47.484;9.726;2023-04-25T15:03:42;1.90;;;0.77;;
13051;SDS011;6592;47.484;9.726;2023-04-25T15:06:12;1.35;;;0.50;;
13051;SDS011;6592;47.484;9.726;2023-04-25T15:08:40;1.35;;;0.50;;
13051;SDS011;6592;47.484;9.726;2023-04-25T15:11:08;1.83;;;0.90;;
13051;SDS011;6592;47.484;9.726;2023-04-25T15:13:38;2.30;;;1.00;;
13051;SDS011;6592;47.484;9.726;2023-04-25T15:16:06;1.77;;;0.80;;
13051;SDS011;6592;47.484;9.726;2023-04-25T15:18:34;2.10;;;1.00;;
13051;SDS011;6592;47.484;9.726;2023-04-25T15:21:03;2.92;;;1.00;;
13051;SDS011;6592;47.484;9.726;2023-04-25T15:23:33;2.38;;;0.93;;